sensor_id;sensor_type;location;lat;lon;timestamp;P1;durP1;ratioP1;P2;durP2;ratioP2
68050;SDS011;54839;51.364;7.246;2022-07-11T00:01:37;4.77;;;2.90;;
68050;SDS011;54839;51.364;7.246;2022-07-11T00:04:03;4.00;;;2.83;;
68050;SDS011;54839;51.364;7.246;2022-07-11T00:06:28;6.10;;;3.23;;
68050;SDS011;54839;51.364;7.246;2022-07-11T00:08:54;4.80;;;3.27;;
68050;SDS011;54839;51.364;7.246;2022-07-11T00:11:20;7.13;;;3.47;;
68050;SDS011;54839;51.364;7.246;2022-07-11T00:13:46;7.27;;;3.50;;
68050;SDS011;54839;51.364;7.246;2022-07-11T00:16:11;7.27;;;3.47;;
68050;SDS011;54839;51.364;7.246;2022-07-11T00:18:38;5.73;;;3.60;;
68050;SDS011;54839;51.364;7.246;2022-07-11T00:21:04;6.53;;;3.00;;
68050;SDS011;54839;51.364;7.246;2022-07-11T00:23:30;7.40;;;3.73;;
68050;SDS011;54839;51.364;7.246;2022-07-11T00:25:55;4.93;;;4.20;;
68050;SDS011;54839;51.364;7.246;2022-07-11T00:28:21;4.60;;;3.47;;
68050;SDS011;54839;51.364;7.246;2022-07-11T00:30:47;3.70;;;3.00;;
68050;SDS011;54839;51.364;7.246;2022-07-11T00:33:13;5.30;;;3.73;;
68050;SDS011;54839;51.364;7.246;2022-07-11T00:35:38;8.93;;;4.00;;
68050;SDS011;54839;51.364;7.246;2022-07-11T00:38:05;16.03;;;3.90;;
68050;SDS011;54839;51.364;7.246;2022-07-11T00:40:34;9.27;;;4.07;;
68050;SDS011;54839;51.364;7.246;2022-07-11T00:43:00;5.00;;;3.40;;
68050;SDS011;54839;51.364;7.246;2022-07-11T00:45:28;4.70;;;3.50;;
68050;SDS011;54839;51.364;7.246;2022-07-11T00:47:54;6.80;;;4.90;;
68050;SDS011;54839;51.364;7.246;2022-07-11T00:50:21;5.97;;;3.80;;
68050;SDS011;54839;51.364;7.246;2022-07-11T00:52:48;7.10;;;4.03;;
68050;SDS011;54839;51.364;7.246;2022-07-11T00:55:15;6.90;;;4.37;;
68050;SDS011;54839;51.364;7.246;2022-07-11T00:57:41;12.60;;;5.20;;
68050;SDS011;54839;51.364;7.246;2022-07-11T01:00:08;7.87;;;4.07;;
68050;SDS011;54839;51.364;7.246;2022-07-11T01:02:34;8.30;;;5.73;;
68050;SDS011;54839;51.364;7.246;2022-07-11T01:05:00;5.07;;;4.33;;
68050;SDS011;54839;51.364;7.246;2022-07-11T01:07:26;6.03;;;5.37;;
68050;SDS011;54839;51.364;7.246;2022-07-11T01:09:52;9.10;;;4.20;;
68050;SDS011;54839;51.364;7.246;2022-07-11T01:12:17;4.97;;;4.20;;
68050;SDS011;54839;51.364;7.246;2022-07-11T01:14:53;7.97;;;4.30;;
68050;SDS011;54839;51.364;7.246;2022-07-11T01:17:19;4.87;;;4.03;;
68050;SDS011;54839;51.364;7.246;2022-07-11T01:19:48;11.77;;;5.07;;
68050;SDS011;54839;51.364;7.246;2022-07-11T01:22:13;6.80;;;5.60;;
68050;SDS011;54839;51.364;7.246;2022-07-11T01:24:43;5.17;;;4.70;;
68050;SDS011;54839;51.364;7.246;2022-07-11T01:27:10;6.07;;;5.50;;
68050;SDS011;54839;51.364;7.246;2022-07-11T01:29:37;8.07;;;5.40;;
68050;SDS011;54839;51.364;7.246;2022-07-11T01:32:03;11.10;;;4.80;;
68050;SDS011;54839;51.364;7.246;2022-07-11T01:34:30;10.63;;;5.10;;
68050;SDS011;54839;51.364;7.246;2022-07-11T01:36:55;7.30;;;4.80;;
68050;SDS011;54839;51.364;7.246;2022-07-11T01:39:21;12.20;;;4.70;;
68050;SDS011;54839;51.364;7.246;2022-07-11T01:41:47;7.60;;;4.77;;
68050;SDS011;54839;51.364;7.246;2022-07-11T01:44:12;9.57;;;5.30;;
68050;SDS011;54839;51.364;7.246;2022-07-11T01:46:38;6.27;;;4.30;;
68050;SDS011;54839;51.364;7.246;2022-07-11T01:49:04;8.53;;;4.50;;
68050;SDS011;54839;51.364;7.246;2022-07-11T01:51:30;6.37;;;4.57;;
68050;SDS011;54839;51.364;7.246;2022-07-11T01:53:56;11.77;;;5.00;;
68050;SDS011;54839;51.364;7.246;2022-07-11T01:56:22;4.90;;;4.33;;
68050;SDS011;54839;51.364;7.246;2022-07-11T01:58:48;15.30;;;5.43;;
68050;SDS011;54839;51.364;7.246;2022-07-11T02:01:14;9.23;;;4.03;;
68050;SDS011;54839;51.364;7.246;2022-07-11T02:03:40;5.97;;;4.77;;
68050;SDS011;54839;51.364;7.246;2022-07-11T02:06:06;6.17;;;4.53;;
68050;SDS011;54839;51.364;7.246;2022-07-11T02:08:32;10.27;;;4.87;;
68050;SDS011;54839;51.364;7.246;2022-07-11T02:10:57;8.90;;;4.80;;
68050;SDS011;54839;51.364;7.246;2022-07-11T02:13:23;9.03;;;5.00;;
68050;SDS011;54839;51.364;7.246;2022-07-11T02:15:50;7.40;;;4.57;;
68050;SDS011;54839;51.364;7.246;2022-07-11T02:18:23;4.37;;;3.97;;
68050;SDS011;54839;51.364;7.246;2022-07-11T02:20:49;8.40;;;5.90;;
68050;SDS011;54839;51.364;7.246;2022-07-11T02:23:15;10.67;;;3.80;;
68050;SDS011;54839;51.364;7.246;2022-07-11T02:25:42;4.50;;;4.10;;
68050;SDS011;54839;51.364;7.246;2022-07-11T02:28:08;7.93;;;4.83;;
68050;SDS011;54839;51.364;7.246;2022-07-11T02:30:35;7.73;;;4.70;;
68050;SDS011;54839;51.364;7.246;2022-07-11T02:33:02;11.07;;;4.73;;
68050;SDS011;54839;51.364;7.246;2022-07-11T02:35:28;10.80;;;4.40;;
68050;SDS011;54839;51.364;7.246;2022-07-11T02:37:54;11.13;;;4.93;;
68050;SDS011;54839;51.364;7.246;2022-07-11T02:40:20;5.70;;;4.40;;
68050;SDS011;54839;51.364;7.246;2022-07-11T02:42:46;8.63;;;4.30;;
68050;SDS011;54839;51.364;7.246;2022-07-11T02:45:11;7.70;;;4.10;;
68050;SDS011;54839;51.364;7.246;2022-07-11T02:47:38;5.83;;;4.30;;
68050;SDS011;54839;51.364;7.246;2022-07-11T02:50:08;9.03;;;5.40;;
68050;SDS011;54839;51.364;7.246;2022-07-11T02:52:36;10.50;;;4.90;;
68050;SDS011;54839;51.364;7.246;2022-07-11T02:55:02;4.97;;;4.47;;
68050;SDS011;54839;51.364;7.246;2022-07-11T02:57:28;13.03;;;5.00;;
68050;SDS011;54839;51.364;7.246;2022-07-11T02:59:54;4.53;;;4.10;;
68050;SDS011;54839;51.364;7.246;2022-07-11T03:02:20;7.50;;;4.20;;
68050;SDS011;54839;51.364;7.246;2022-07-11T03:04:46;6.13;;;4.47;;
68050;SDS011;54839;51.364;7.246;2022-07-11T03:07:12;7.50;;;6.40;;
68050;SDS011;54839;51.364;7.246;2022-07-11T03:09:37;6.63;;;4.67;;
68050;SDS011;54839;51.364;7.246;2022-07-11T03:12:03;9.90;;;4.60;;
68050;SDS011;54839;51.364;7.246;2022-07-11T03:14:29;9.20;;;4.87;;
68050;SDS011;54839;51.364;7.246;2022-07-11T03:16:55;11.00;;;5.53;;
68050;SDS011;54839;51.364;7.246;2022-07-11T03:19:21;8.50;;;5.53;;
68050;SDS011;54839;51.364;7.246;2022-07-11T03:21:47;6.00;;;4.30;;
68050;SDS011;54839;51.364;7.246;2022-07-11T03:24:13;5.93;;;4.33;;
68050;SDS011;54839;51.364;7.246;2022-07-11T03:26:38;7.20;;;4.77;;
68050;SDS011;54839;51.364;7.246;2022-07-11T03:29:04;13.20;;;5.30;;
68050;SDS011;54839;51.364;7.246;2022-07-11T03:31:32;6.67;;;4.80;;
68050;SDS011;54839;51.364;7.246;2022-07-11T03:33:58;6.20;;;4.70;;
68050;SDS011;54839;51.364;7.246;2022-07-11T03:36:24;9.93;;;5.20;;
68050;SDS011;54839;51.364;7.246;2022-07-11T03:38:51;6.90;;;4.57;;
68050;SDS011;54839;51.364;7.246;2022-07-11T03:41:16;8.73;;;3.80;;
68050;SDS011;54839;51.364;7.246;2022-07-11T03:43:42;10.37;;;5.40;;
68050;SDS011;54839;51.364;7.246;2022-07-11T03:46:08;8.03;;;5.30;;
68050;SDS011;54839;51.364;7.246;2022-07-11T03:48:34;13.33;;;6.00;;
68050;SDS011;54839;51.364;7.246;2022-07-11T03:51:00;5.77;;;4.23;;
68050;SDS011;54839;51.364;7.246;2022-07-11T03:53:26;7.27;;;5.13;;
68050;SDS011;54839;51.364;7.246;2022-07-11T03:55:55;7.63;;;3.93;;
68050;SDS011;54839;51.364;7.246;2022-07-11T03:58:20;11.50;;;5.27;;
68050;SDS011;54839;51.364;7.246;2022-07-11T04:00:46;5.20;;;4.60;;
68050;SDS011;54839;51.364;7.246;2022-07-11T04:03:12;8.07;;;4.03;;
68050;SDS011;54839;51.364;7.246;2022-07-11T04:05:37;11.40;;;5.83;;
68050;SDS011;54839;51.364;7.246;2022-07-11T04:08:03;12.90;;;5.63;;
68050;SDS011;54839;51.364;7.246;2022-07-11T04:10:29;6.50;;;5.40;;
68050;SDS011;54839;51.364;7.246;2022-07-11T04:12:55;9.93;;;4.40;;
68050;SDS011;54839;51.364;7.246;2022-07-11T04:15:20;5.80;;;4.87;;
68050;SDS011;54839;51.364;7.246;2022-07-11T04:17:47;9.03;;;5.17;;
68050;SDS011;54839;51.364;7.246;2022-07-11T04:20:12;13.93;;;5.13;;
68050;SDS011;54839;51.364;7.246;2022-07-11T04:22:38;7.37;;;4.10;;
68050;SDS011;54839;51.364;7.246;2022-07-11T04:25:04;4.60;;;3.80;;
68050;SDS011;54839;51.364;7.246;2022-07-11T04:27:30;10.60;;;4.33;;
68050;SDS011;54839;51.364;7.246;2022-07-11T04:29:57;6.33;;;4.37;;
68050;SDS011;54839;51.364;7.246;2022-07-11T04:32:25;10.40;;;4.47;;
68050;SDS011;54839;51.364;7.246;2022-07-11T04:34:51;9.00;;;3.77;;
68050;SDS011;54839;51.364;7.246;2022-07-11T04:37:16;8.93;;;3.10;;
68050;SDS011;54839;51.364;7.246;2022-07-11T04:39:42;8.17;;;3.70;;
68050;SDS011;54839;51.364;7.246;2022-07-11T04:42:10;4.83;;;3.60;;
68050;SDS011;54839;51.364;7.246;2022-07-11T04:44:36;5.03;;;4.10;;
68050;SDS011;54839;51.364;7.246;2022-07-11T04:47:01;3.90;;;3.57;;
68050;SDS011;54839;51.364;7.246;2022-07-11T04:49:27;6.20;;;4.07;;
68050;SDS011;54839;51.364;7.246;2022-07-11T04:51:54;7.03;;;4.27;;
68050;SDS011;54839;51.364;7.246;2022-07-11T04:54:22;8.20;;;4.37;;
68050;SDS011;54839;51.364;7.246;2022-07-11T04:56:48;6.90;;;3.73;;
68050;SDS011;54839;51.364;7.246;2022-07-11T04:59:14;7.13;;;4.37;;
68050;SDS011;54839;51.364;7.246;2022-07-11T05:01:39;10.00;;;4.00;;
68050;SDS011;54839;51.364;7.246;2022-07-11T05:04:06;4.13;;;3.77;;
68050;SDS011;54839;51.364;7.246;2022-07-11T05:06:32;5.70;;;3.73;;
68050;SDS011;54839;51.364;7.246;2022-07-11T05:08:58;5.73;;;3.50;;
68050;SDS011;54839;51.364;7.246;2022-07-11T05:11:24;4.03;;;3.20;;
68050;SDS011;54839;51.364;7.246;2022-07-11T05:13:50;5.27;;;3.20;;
68050;SDS011;54839;51.364;7.246;2022-07-11T05:16:16;7.10;;;3.23;;
68050;SDS011;54839;51.364;7.246;2022-07-11T05:18:41;4.77;;;3.00;;
68050;SDS011;54839;51.364;7.246;2022-07-11T05:21:07;5.20;;;3.67;;
68050;SDS011;54839;51.364;7.246;2022-07-11T05:23:33;5.83;;;3.20;;
68050;SDS011;54839;51.364;7.246;2022-07-11T05:25:58;5.00;;;3.37;;
68050;SDS011;54839;51.364;7.246;2022-07-11T05:28:24;6.60;;;3.10;;
68050;SDS011;54839;51.364;7.246;2022-07-11T05:30:50;4.57;;;2.90;;
68050;SDS011;54839;51.364;7.246;2022-07-11T05:33:16;3.13;;;2.90;;
68050;SDS011;54839;51.364;7.246;2022-07-11T05:35:41;3.87;;;2.60;;
68050;SDS011;54839;51.364;7.246;2022-07-11T05:38:07;4.40;;;3.13;;
68050;SDS011;54839;51.364;7.246;2022-07-11T05:40:33;13.13;;;3.57;;
68050;SDS011;54839;51.364;7.246;2022-07-11T05:42:59;4.83;;;2.63;;
68050;SDS011;54839;51.364;7.246;2022-07-11T05:45:26;4.80;;;4.20;;
68050;SDS011;54839;51.364;7.246;2022-07-11T05:47:51;3.87;;;3.47;;
68050;SDS011;54839;51.364;7.246;2022-07-11T05:50:17;5.03;;;3.17;;
68050;SDS011;54839;51.364;7.246;2022-07-11T05:52:43;3.30;;;2.93;;
68050;SDS011;54839;51.364;7.246;2022-07-11T05:55:09;3.67;;;2.97;;
68050;SDS011;54839;51.364;7.246;2022-07-11T05:57:34;7.77;;;4.80;;
68050;SDS011;54839;51.364;7.246;2022-07-11T06:00:00;3.63;;;2.67;;
68050;SDS011;54839;51.364;7.246;2022-07-11T06:02:26;3.60;;;2.90;;
68050;SDS011;54839;51.364;7.246;2022-07-11T06:04:52;4.97;;;3.20;;
68050;SDS011;54839;51.364;7.246;2022-07-11T06:07:17;6.73;;;3.27;;
68050;SDS011;54839;51.364;7.246;2022-07-11T06:10:02;4.97;;;2.20;;
68050;SDS011;54839;51.364;7.246;2022-07-11T06:12:28;2.60;;;1.53;;
68050;SDS011;54839;51.364;7.246;2022-07-11T06:14:54;3.03;;;2.00;;
68050;SDS011;54839;51.364;7.246;2022-07-11T06:17:20;2.27;;;2.10;;
68050;SDS011;54839;51.364;7.246;2022-07-11T06:19:46;2.27;;;2.00;;
68050;SDS011;54839;51.364;7.246;2022-07-11T06:22:11;2.10;;;1.50;;
68050;SDS011;54839;51.364;7.246;2022-07-11T06:24:37;1.63;;;1.53;;
68050;SDS011;54839;51.364;7.246;2022-07-11T06:27:09;2.00;;;1.70;;
68050;SDS011;54839;51.364;7.246;2022-07-11T06:29:34;2.63;;;2.43;;
68050;SDS011;54839;51.364;7.246;2022-07-11T06:32:00;2.00;;;1.80;;
68050;SDS011;54839;51.364;7.246;2022-07-11T06:34:25;2.43;;;2.07;;
68050;SDS011;54839;51.364;7.246;2022-07-11T06:36:51;2.97;;;2.47;;
68050;SDS011;54839;51.364;7.246;2022-07-11T06:39:16;2.00;;;1.63;;
68050;SDS011;54839;51.364;7.246;2022-07-11T06:41:42;3.33;;;2.23;;
68050;SDS011;54839;51.364;7.246;2022-07-11T06:44:07;1.67;;;1.57;;
68050;SDS011;54839;51.364;7.246;2022-07-11T06:46:33;2.40;;;1.77;;
68050;SDS011;54839;51.364;7.246;2022-07-11T06:48:58;2.10;;;1.77;;
68050;SDS011;54839;51.364;7.246;2022-07-11T06:51:24;1.80;;;1.70;;
68050;SDS011;54839;51.364;7.246;2022-07-11T06:53:51;2.70;;;1.83;;
68050;SDS011;54839;51.364;7.246;2022-07-11T06:56:16;2.00;;;1.77;;
68050;SDS011;54839;51.364;7.246;2022-07-11T06:58:45;2.50;;;2.13;;
68050;SDS011;54839;51.364;7.246;2022-07-11T07:01:10;1.77;;;1.63;;
68050;SDS011;54839;51.364;7.246;2022-07-11T07:03:36;2.93;;;1.50;;
68050;SDS011;54839;51.364;7.246;2022-07-11T07:06:02;2.53;;;2.33;;
68050;SDS011;54839;51.364;7.246;2022-07-11T07:08:28;3.10;;;2.90;;
68050;SDS011;54839;51.364;7.246;2022-07-11T07:10:54;2.53;;;2.43;;
68050;SDS011;54839;51.364;7.246;2022-07-11T07:13:20;2.87;;;2.67;;
68050;SDS011;54839;51.364;7.246;2022-07-11T07:15:49;4.13;;;2.90;;
68050;SDS011;54839;51.364;7.246;2022-07-11T07:18:15;3.43;;;2.70;;
68050;SDS011;54839;51.364;7.246;2022-07-11T07:20:41;4.87;;;3.13;;
68050;SDS011;54839;51.364;7.246;2022-07-11T07:23:06;2.63;;;2.43;;
68050;SDS011;54839;51.364;7.246;2022-07-11T07:25:32;4.60;;;2.93;;
68050;SDS011;54839;51.364;7.246;2022-07-11T07:27:58;3.77;;;2.93;;
68050;SDS011;54839;51.364;7.246;2022-07-11T07:30:24;2.27;;;2.10;;
68050;SDS011;54839;51.364;7.246;2022-07-11T07:32:50;6.00;;;2.30;;
68050;SDS011;54839;51.364;7.246;2022-07-11T07:35:15;2.63;;;2.13;;
68050;SDS011;54839;51.364;7.246;2022-07-11T07:37:41;4.63;;;2.33;;
68050;SDS011;54839;51.364;7.246;2022-07-11T07:40:06;2.80;;;2.10;;
68050;SDS011;54839;51.364;7.246;2022-07-11T07:42:32;2.63;;;2.53;;
68050;SDS011;54839;51.364;7.246;2022-07-11T07:44:58;2.57;;;2.17;;
68050;SDS011;54839;51.364;7.246;2022-07-11T07:47:23;5.63;;;2.80;;
68050;SDS011;54839;51.364;7.246;2022-07-11T07:49:49;3.23;;;2.47;;
68050;SDS011;54839;51.364;7.246;2022-07-11T07:52:14;2.77;;;2.57;;
68050;SDS011;54839;51.364;7.246;2022-07-11T07:54:40;4.10;;;2.63;;
68050;SDS011;54839;51.364;7.246;2022-07-11T07:57:06;5.30;;;2.57;;
68050;SDS011;54839;51.364;7.246;2022-07-11T07:59:32;3.37;;;2.80;;
68050;SDS011;54839;51.364;7.246;2022-07-11T08:01:57;3.37;;;3.07;;
68050;SDS011;54839;51.364;7.246;2022-07-11T08:04:23;3.53;;;3.33;;
68050;SDS011;54839;51.364;7.246;2022-07-11T08:06:48;3.73;;;3.53;;
68050;SDS011;54839;51.364;7.246;2022-07-11T08:09:14;4.40;;;4.10;;
68050;SDS011;54839;51.364;7.246;2022-07-11T08:11:40;5.20;;;3.70;;
68050;SDS011;54839;51.364;7.246;2022-07-11T08:14:05;3.43;;;2.93;;
68050;SDS011;54839;51.364;7.246;2022-07-11T08:16:33;3.67;;;3.37;;
68050;SDS011;54839;51.364;7.246;2022-07-11T08:19:00;4.33;;;3.97;;
68050;SDS011;54839;51.364;7.246;2022-07-11T08:21:27;4.17;;;3.17;;
68050;SDS011;54839;51.364;7.246;2022-07-11T08:23:53;3.20;;;2.90;;
68050;SDS011;54839;51.364;7.246;2022-07-11T08:26:20;4.50;;;2.80;;
68050;SDS011;54839;51.364;7.246;2022-07-11T08:28:46;3.07;;;2.87;;
68050;SDS011;54839;51.364;7.246;2022-07-11T08:31:11;2.70;;;2.60;;
68050;SDS011;54839;51.364;7.246;2022-07-11T08:33:37;6.73;;;4.50;;
68050;SDS011;54839;51.364;7.246;2022-07-11T08:36:02;3.83;;;2.90;;
68050;SDS011;54839;51.364;7.246;2022-07-11T08:38:28;3.00;;;2.80;;
68050;SDS011;54839;51.364;7.246;2022-07-11T08:40:54;2.93;;;2.73;;
68050;SDS011;54839;51.364;7.246;2022-07-11T08:43:22;2.80;;;2.30;;
68050;SDS011;54839;51.364;7.246;2022-07-11T08:45:51;2.80;;;2.60;;
68050;SDS011;54839;51.364;7.246;2022-07-11T08:48:17;4.30;;;2.67;;
68050;SDS011;54839;51.364;7.246;2022-07-11T08:50:44;3.50;;;2.80;;
68050;SDS011;54839;51.364;7.246;2022-07-11T08:53:10;2.87;;;2.67;;
68050;SDS011;54839;51.364;7.246;2022-07-11T08:55:36;2.43;;;2.23;;
68050;SDS011;54839;51.364;7.246;2022-07-11T08:58:02;4.30;;;2.37;;
68050;SDS011;54839;51.364;7.246;2022-07-11T09:00:28;5.83;;;2.70;;
68050;SDS011;54839;51.364;7.246;2022-07-11T09:02:54;3.00;;;2.77;;
68050;SDS011;54839;51.364;7.246;2022-07-11T09:05:20;3.47;;;3.20;;
68050;SDS011;54839;51.364;7.246;2022-07-11T09:07:47;4.90;;;3.73;;
68050;SDS011;54839;51.364;7.246;2022-07-11T09:10:15;3.83;;;3.50;;
68050;SDS011;54839;51.364;7.246;2022-07-11T09:13:01;5.47;;;5.07;;
68050;SDS011;54839;51.364;7.246;2022-07-11T09:15:37;5.63;;;5.13;;
68050;SDS011;54839;51.364;7.246;2022-07-11T09:18:05;7.13;;;6.57;;
68050;SDS011;54839;51.364;7.246;2022-07-11T09:20:55;10.43;;;9.53;;
68050;SDS011;54839;51.364;7.246;2022-07-11T09:23:41;8.20;;;7.57;;
68050;SDS011;54839;51.364;7.246;2022-07-11T09:26:30;8.70;;;7.90;;
68050;SDS011;54839;51.364;7.246;2022-07-11T09:28:58;9.60;;;8.70;;
68050;SDS011;54839;51.364;7.246;2022-07-11T09:31:30;10.30;;;9.70;;
68050;SDS011;54839;51.364;7.246;2022-07-11T09:33:58;11.33;;;10.30;;
68050;SDS011;54839;51.364;7.246;2022-07-11T09:36:41;8.97;;;8.27;;
68050;SDS011;54839;51.364;7.246;2022-07-11T09:39:15;10.23;;;9.33;;
68050;SDS011;54839;51.364;7.246;2022-07-11T09:41:46;8.87;;;7.90;;
68050;SDS011;54839;51.364;7.246;2022-07-11T09:44:17;9.23;;;8.40;;
68050;SDS011;54839;51.364;7.246;2022-07-11T09:46:45;7.97;;;7.37;;
68050;SDS011;54839;51.364;7.246;2022-07-11T09:49:13;8.37;;;7.63;;
68050;SDS011;54839;51.364;7.246;2022-07-11T09:51:39;8.90;;;8.00;;
68050;SDS011;54839;51.364;7.246;2022-07-11T09:54:06;8.83;;;7.83;;
68050;SDS011;54839;51.364;7.246;2022-07-11T09:56:42;9.00;;;8.30;;
68050;SDS011;54839;51.364;7.246;2022-07-11T09:59:10;7.17;;;6.57;;
68050;SDS011;54839;51.364;7.246;2022-07-11T10:01:38;9.03;;;8.30;;
68050;SDS011;54839;51.364;7.246;2022-07-11T10:04:05;8.10;;;7.37;;
68050;SDS011;54839;51.364;7.246;2022-07-11T10:06:32;8.23;;;7.53;;
68050;SDS011;54839;51.364;7.246;2022-07-11T10:08:58;7.70;;;7.10;;
68050;SDS011;54839;51.364;7.246;2022-07-11T10:11:24;6.67;;;6.17;;
68050;SDS011;54839;51.364;7.246;2022-07-11T10:13:50;7.47;;;6.87;;
68050;SDS011;54839;51.364;7.246;2022-07-11T10:21:31;5.87;;;5.47;;
68050;SDS011;54839;51.364;7.246;2022-07-11T10:26:57;10.63;;;9.93;;
68050;SDS011;54839;51.364;7.246;2022-07-11T10:29:37;13.43;;;12.40;;
68050;SDS011;54839;51.364;7.246;2022-07-11T10:32:15;16.07;;;14.67;;
68050;SDS011;54839;51.364;7.246;2022-07-11T10:34:41;16.37;;;14.87;;
68050;SDS011;54839;51.364;7.246;2022-07-11T10:37:08;17.73;;;16.10;;
68050;SDS011;54839;51.364;7.246;2022-07-11T10:39:35;17.20;;;15.50;;
68050;SDS011;54839;51.364;7.246;2022-07-11T10:42:05;16.80;;;15.00;;
68050;SDS011;54839;51.364;7.246;2022-07-11T10:44:51;16.27;;;14.50;;
68050;SDS011;54839;51.364;7.246;2022-07-11T10:47:35;17.10;;;15.60;;
68050;SDS011;54839;51.364;7.246;2022-07-11T10:50:10;15.70;;;14.23;;
68050;SDS011;54839;51.364;7.246;2022-07-11T10:52:48;16.87;;;15.30;;
68050;SDS011;54839;51.364;7.246;2022-07-11T10:58:08;14.63;;;13.43;;
68050;SDS011;54839;51.364;7.246;2022-07-11T11:00:34;14.23;;;13.13;;
68050;SDS011;54839;51.364;7.246;2022-07-11T11:03:03;14.33;;;13.10;;
68050;SDS011;54839;51.364;7.246;2022-07-11T11:05:47;15.47;;;14.13;;
68050;SDS011;54839;51.364;7.246;2022-07-11T11:08:56;12.40;;;11.40;;
68050;SDS011;54839;51.364;7.246;2022-07-11T11:16:41;11.57;;;10.67;;
68050;SDS011;54839;51.364;7.246;2022-07-11T11:19:07;11.40;;;10.50;;
68050;SDS011;54839;51.364;7.246;2022-07-11T11:22:00;12.00;;;11.00;;
68050;SDS011;54839;51.364;7.246;2022-07-11T11:24:28;12.50;;;11.47;;
68050;SDS011;54839;51.364;7.246;2022-07-11T11:26:54;12.30;;;11.27;;
68050;SDS011;54839;51.364;7.246;2022-07-11T11:29:25;12.37;;;11.37;;
68050;SDS011;54839;51.364;7.246;2022-07-11T11:31:55;13.20;;;12.10;;
68050;SDS011;54839;51.364;7.246;2022-07-11T11:34:22;12.47;;;11.00;;
68050;SDS011;54839;51.364;7.246;2022-07-11T11:36:52;10.83;;;9.87;;
68050;SDS011;54839;51.364;7.246;2022-07-11T11:39:23;9.60;;;8.90;;
68050;SDS011;54839;51.364;7.246;2022-07-11T11:41:50;8.43;;;7.83;;
68050;SDS011;54839;51.364;7.246;2022-07-11T11:44:16;8.67;;;7.97;;
68050;SDS011;54839;51.364;7.246;2022-07-11T11:46:41;9.30;;;8.60;;
68050;SDS011;54839;51.364;7.246;2022-07-11T11:49:07;8.83;;;8.00;;
68050;SDS011;54839;51.364;7.246;2022-07-11T11:51:34;8.90;;;8.20;;
68050;SDS011;54839;51.364;7.246;2022-07-11T11:54:00;8.10;;;7.30;;
68050;SDS011;54839;51.364;7.246;2022-07-11T11:59:15;7.77;;;7.17;;
68050;SDS011;54839;51.364;7.246;2022-07-11T12:01:42;7.27;;;6.67;;
68050;SDS011;54839;51.364;7.246;2022-07-11T12:04:10;6.23;;;5.53;;
68050;SDS011;54839;51.364;7.246;2022-07-11T12:06:38;5.20;;;4.80;;
68050;SDS011;54839;51.364;7.246;2022-07-11T12:09:12;3.93;;;3.60;;
68050;SDS011;54839;51.364;7.246;2022-07-11T12:11:43;3.43;;;3.23;;
68050;SDS011;54839;51.364;7.246;2022-07-11T12:14:12;3.70;;;3.40;;
68050;SDS011;54839;51.364;7.246;2022-07-11T12:16:42;3.40;;;3.10;;
68050;SDS011;54839;51.364;7.246;2022-07-11T12:21:51;2.60;;;2.40;;
68050;SDS011;54839;51.364;7.246;2022-07-11T12:24:22;3.20;;;3.00;;
68050;SDS011;54839;51.364;7.246;2022-07-11T12:26:49;2.93;;;2.73;;
68050;SDS011;54839;51.364;7.246;2022-07-11T12:29:22;3.50;;;3.20;;
68050;SDS011;54839;51.364;7.246;2022-07-11T12:31:50;3.00;;;2.80;;
68050;SDS011;54839;51.364;7.246;2022-07-11T12:39:30;3.60;;;3.40;;
68050;SDS011;54839;51.364;7.246;2022-07-11T12:41:58;4.27;;;3.97;;
68050;SDS011;54839;51.364;7.246;2022-07-11T12:44:28;4.97;;;4.57;;
68050;SDS011;54839;51.364;7.246;2022-07-11T12:47:15;4.50;;;4.20;;
68050;SDS011;54839;51.364;7.246;2022-07-11T12:49:48;3.60;;;3.40;;
68050;SDS011;54839;51.364;7.246;2022-07-11T12:52:15;3.00;;;2.80;;
68050;SDS011;54839;51.364;7.246;2022-07-11T12:54:41;3.60;;;3.30;;
68050;SDS011;54839;51.364;7.246;2022-07-11T12:57:07;3.90;;;3.67;;
68050;SDS011;54839;51.364;7.246;2022-07-11T12:59:34;3.90;;;3.20;;
68050;SDS011;54839;51.364;7.246;2022-07-11T13:02:07;3.10;;;2.90;;
68050;SDS011;54839;51.364;7.246;2022-07-11T13:04:47;3.10;;;3.00;;
68050;SDS011;54839;51.364;7.246;2022-07-11T13:07:31;3.50;;;3.20;;
68050;SDS011;54839;51.364;7.246;2022-07-11T13:10:21;2.73;;;2.60;;
68050;SDS011;54839;51.364;7.246;2022-07-11T13:12:52;4.20;;;3.90;;
68050;SDS011;54839;51.364;7.246;2022-07-11T13:15:20;3.50;;;3.30;;
68050;SDS011;54839;51.364;7.246;2022-07-11T13:17:52;3.50;;;3.23;;
68050;SDS011;54839;51.364;7.246;2022-07-11T13:20:20;3.60;;;3.40;;
68050;SDS011;54839;51.364;7.246;2022-07-11T13:22:48;3.90;;;3.70;;
68050;SDS011;54839;51.364;7.246;2022-07-11T13:25:16;3.90;;;3.60;;
68050;SDS011;54839;51.364;7.246;2022-07-11T13:27:44;4.70;;;4.30;;
68050;SDS011;54839;51.364;7.246;2022-07-11T13:30:11;5.30;;;4.90;;
68050;SDS011;54839;51.364;7.246;2022-07-11T13:32:40;4.20;;;3.90;;
68050;SDS011;54839;51.364;7.246;2022-07-11T13:35:06;6.70;;;6.23;;
68050;SDS011;54839;51.364;7.246;2022-07-11T13:37:33;7.20;;;6.77;;
68050;SDS011;54839;51.364;7.246;2022-07-11T13:40:04;7.03;;;6.63;;
68050;SDS011;54839;51.364;7.246;2022-07-11T13:42:30;9.10;;;8.30;;
68050;SDS011;54839;51.364;7.246;2022-07-11T13:44:58;9.07;;;8.40;;
68050;SDS011;54839;51.364;7.246;2022-07-11T13:47:25;9.60;;;8.90;;
68050;SDS011;54839;51.364;7.246;2022-07-11T13:49:51;9.80;;;8.90;;
68050;SDS011;54839;51.364;7.246;2022-07-11T13:52:16;8.90;;;8.30;;
68050;SDS011;54839;51.364;7.246;2022-07-11T13:54:42;9.00;;;8.30;;
68050;SDS011;54839;51.364;7.246;2022-07-11T13:57:08;8.67;;;8.07;;
68050;SDS011;54839;51.364;7.246;2022-07-11T13:59:34;7.40;;;6.90;;
68050;SDS011;54839;51.364;7.246;2022-07-11T14:02:00;8.80;;;8.03;;
68050;SDS011;54839;51.364;7.246;2022-07-11T14:04:27;8.50;;;7.90;;
68050;SDS011;54839;51.364;7.246;2022-07-11T14:06:53;8.80;;;7.93;;
68050;SDS011;54839;51.364;7.246;2022-07-11T14:09:20;9.03;;;8.23;;
68050;SDS011;54839;51.364;7.246;2022-07-11T14:11:45;9.90;;;9.10;;
68050;SDS011;54839;51.364;7.246;2022-07-11T14:14:11;9.00;;;8.10;;
68050;SDS011;54839;51.364;7.246;2022-07-11T14:16:37;9.00;;;8.20;;
68050;SDS011;54839;51.364;7.246;2022-07-11T14:19:03;10.20;;;8.40;;
68050;SDS011;54839;51.364;7.246;2022-07-11T14:21:32;9.83;;;8.43;;
68050;SDS011;54839;51.364;7.246;2022-07-11T14:23:59;8.53;;;7.80;;
68050;SDS011;54839;51.364;7.246;2022-07-11T14:26:25;10.30;;;9.37;;
68050;SDS011;54839;51.364;7.246;2022-07-11T14:28:51;8.13;;;7.53;;
68050;SDS011;54839;51.364;7.246;2022-07-11T14:31:17;9.53;;;8.73;;
68050;SDS011;54839;51.364;7.246;2022-07-11T14:33:43;7.83;;;7.23;;
68050;SDS011;54839;51.364;7.246;2022-07-11T14:36:09;8.10;;;7.40;;
68050;SDS011;54839;51.364;7.246;2022-07-11T14:38:35;8.87;;;8.03;;
68050;SDS011;54839;51.364;7.246;2022-07-11T14:41:01;8.17;;;6.93;;
68050;SDS011;54839;51.364;7.246;2022-07-11T14:43:26;7.37;;;6.77;;
68050;SDS011;54839;51.364;7.246;2022-07-11T14:45:53;8.73;;;7.73;;
68050;SDS011;54839;51.364;7.246;2022-07-11T14:48:19;7.77;;;6.93;;
68050;SDS011;54839;51.364;7.246;2022-07-11T14:50:45;8.70;;;8.00;;
68050;SDS011;54839;51.364;7.246;2022-07-11T14:53:12;9.40;;;8.70;;
68050;SDS011;54839;51.364;7.246;2022-07-11T14:55:37;9.00;;;8.30;;
68050;SDS011;54839;51.364;7.246;2022-07-11T14:58:04;7.90;;;7.20;;
68050;SDS011;54839;51.364;7.246;2022-07-11T15:00:29;7.87;;;7.27;;
68050;SDS011;54839;51.364;7.246;2022-07-11T15:02:56;8.43;;;7.73;;
68050;SDS011;54839;51.364;7.246;2022-07-11T15:05:41;9.00;;;8.30;;
68050;SDS011;54839;51.364;7.246;2022-07-11T15:08:07;8.40;;;7.80;;
68050;SDS011;54839;51.364;7.246;2022-07-11T15:10:51;7.20;;;6.80;;
68050;SDS011;54839;51.364;7.246;2022-07-11T15:13:35;7.10;;;6.57;;
68050;SDS011;54839;51.364;7.246;2022-07-11T15:16:01;7.47;;;6.67;;